createdAt,value
2019-05-22T00:00:03.297Z,0.00
2019-05-22T00:01:03.307Z,0.00
2019-05-22T00:02:03.263Z,0.00
2019-05-22T00:03:03.739Z,0.00
2019-05-22T00:04:03.211Z,0.00
2019-05-22T00:05:03.492Z,0.00
2019-05-22T00:06:03.168Z,0.00
2019-05-22T00:07:03.315Z,0.00
2019-05-22T00:08:03.143Z,0.00
2019-05-22T00:09:03.520Z,0.00
2019-05-22T00:10:03.095Z,0.00
2019-05-22T00:11:03.110Z,0.00
2019-05-22T00:13:03.042Z,0.00
2019-05-22T00:14:03.019Z,0.00
2019-05-22T00:15:04.405Z,0.00
2019-05-22T00:16:03.019Z,0.00
2019-05-22T00:17:02.961Z,0.00
2019-05-22T00:18:02.954Z,0.00
2019-05-22T00:19:03.234Z,0.00
2019-05-22T00:20:02.930Z,0.00
2019-05-22T00:21:03.221Z,0.00
2019-05-22T00:22:02.878Z,0.00
2019-05-22T00:23:03.185Z,0.00
2019-05-22T00:24:02.825Z,0.00
2019-05-22T00:25:03.441Z,0.00
2019-05-22T00:26:03.616Z,0.00
2019-05-22T00:27:04.227Z,0.00
2019-05-22T00:28:02.770Z,0.00
2019-05-22T00:30:02.721Z,0.00
2019-05-22T00:31:02.708Z,0.00
2019-05-22T00:32:02.995Z,0.00
2019-05-22T00:33:03.131Z,0.00
2019-05-22T00:34:02.641Z,0.00
2019-05-22T00:35:02.681Z,0.00
2019-05-22T00:36:02.716Z,0.00
2019-05-22T00:37:02.907Z,0.00
2019-05-22T00:38:03.421Z,0.00
2019-05-22T00:40:02.884Z,0.00
2019-05-22T00:41:02.511Z,0.00
2019-05-22T00:42:02.498Z,0.00
2019-05-22T00:43:05.482Z,0.00
2019-05-22T00:44:02.871Z,0.00
2019-05-22T00:45:02.657Z,0.00
2019-05-22T00:46:02.668Z,0.00
2019-05-22T00:47:02.383Z,0.00
2019-05-22T00:48:02.367Z,0.00
2019-05-22T00:49:02.364Z,0.00
2019-05-22T00:50:02.650Z,0.00
2019-05-22T00:51:02.514Z,0.00
2019-05-22T00:52:02.304Z,0.00
2019-05-22T00:53:02.721Z,0.00
2019-05-22T00:54:02.250Z,0.00
2019-05-22T00:55:02.233Z,0.00
2019-05-22T00:56:02.511Z,0.00
2019-05-22T00:57:02.397Z,0.00
2019-05-22T00:58:02.173Z,0.00
2019-05-22T00:59:02.267Z,0.00
2019-05-22T01:00:02.144Z,0.00
2019-05-22T01:01:02.115Z,0.00
2019-05-22T01:02:02.716Z,0.00
2019-05-22T01:03:02.329Z,0.00
2019-05-22T01:04:02.056Z,0.00
2019-05-22T01:05:02.393Z,0.00
2019-05-22T01:06:02.179Z,0.00
2019-05-22T01:07:02.028Z,0.00
2019-05-22T01:08:02.313Z,0.00
2019-05-22T01:09:02.230Z,0.00
2019-05-22T01:10:03.148Z,0.00
2019-05-22T01:11:02.145Z,0.00
2019-05-22T01:13:01.886Z,0.00
2019-05-22T01:14:01.863Z,0.00
2019-05-22T01:15:02.375Z,0.00
2019-05-22T01:16:01.927Z,0.00
2019-05-22T01:18:01.788Z,0.00
2019-05-22T01:20:01.757Z,0.00
2019-05-22T01:21:01.830Z,0.00
2019-05-22T01:22:02.909Z,0.00
2019-05-22T01:23:01.706Z,0.00
2019-05-22T01:24:01.776Z,0.00
2019-05-22T01:25:01.798Z,0.00
2019-05-22T01:26:01.633Z,0.00
2019-05-22T01:27:01.614Z,0.00
2019-05-22T01:29:01.950Z,0.00
2019-05-22T01:30:01.869Z,0.00
2019-05-22T01:31:01.533Z,0.00
2019-05-22T01:32:01.541Z,0.00
2019-05-22T01:33:01.507Z,0.00
2019-05-22T01:34:01.489Z,0.00
2019-05-22T01:35:01.658Z,0.00
2019-05-22T01:36:01.698Z,0.00
2019-05-22T01:38:01.440Z,0.00
2019-05-22T01:39:01.383Z,0.00
2019-05-22T01:40:01.414Z,0.00
2019-05-22T01:41:01.796Z,0.00
2019-05-22T01:42:01.341Z,0.00
2019-05-22T01:43:01.316Z,0.00
2019-05-22T01:44:01.589Z,0.00
2019-05-22T01:45:06.453Z,0.00
2019-05-22T01:46:01.246Z,0.00
2019-05-22T01:47:01.432Z,0.00
2019-05-22T01:48:01.211Z,0.00
2019-05-22T01:49:01.186Z,0.00
2019-05-22T01:50:01.209Z,0.00
2019-05-22T01:51:01.464Z,0.00
2019-05-22T01:52:01.353Z,0.00
2019-05-22T01:53:01.161Z,0.00
2019-05-22T01:54:01.089Z,0.00
2019-05-22T01:55:01.068Z,0.00
2019-05-22T01:57:01.036Z,0.00
2019-05-22T01:58:01.329Z,0.00
2019-05-22T01:59:01.352Z,0.00
2019-05-22T02:00:00.976Z,0.00
2019-05-22T02:01:00.965Z,0.00
2019-05-22T02:02:00.931Z,0.00
2019-05-22T02:03:00.915Z,0.00
2019-05-22T02:04:01.196Z,0.00
2019-05-22T02:05:02.405Z,0.00
2019-05-22T02:07:00.842Z,0.00
2019-05-22T02:08:00.821Z,0.00
2019-05-22T02:09:00.805Z,0.00
2019-05-22T02:10:01.085Z,0.00
2019-05-22T02:11:00.814Z,0.00
2019-05-22T02:12:00.745Z,0.00
2019-05-22T02:13:00.729Z,0.00
2019-05-22T02:14:00.703Z,0.00
2019-05-22T02:15:00.688Z,0.00
2019-05-22T02:16:00.974Z,0.00
2019-05-22T02:17:00.845Z,0.00
2019-05-22T02:18:00.620Z,0.00
2019-05-22T02:19:00.607Z,0.00
2019-05-22T02:20:00.588Z,0.00
2019-05-22T02:21:00.622Z,0.00
2019-05-22T02:22:00.902Z,0.00
2019-05-22T02:23:00.733Z,0.00
2019-05-22T02:24:00.516Z,0.00
2019-05-22T02:26:00.482Z,0.00
2019-05-22T02:27:00.480Z,0.00
2019-05-22T02:28:00.998Z,0.00
2019-05-22T02:29:00.527Z,0.00
2019-05-22T02:31:00.376Z,0.00
2019-05-22T02:33:00.337Z,0.00
2019-05-22T02:34:00.751Z,0.00
2019-05-22T02:35:00.648Z,0.00
2019-05-22T02:36:00.276Z,0.00
2019-05-22T02:37:00.260Z,0.00
2019-05-22T02:38:00.248Z,0.00
2019-05-22T02:39:00.213Z,0.00
2019-05-22T02:40:00.202Z,0.00
2019-05-22T02:41:00.606Z,0.00
2019-05-22T02:42:00.152Z,0.00
2019-05-22T02:43:00.218Z,0.00
2019-05-22T02:44:00.171Z,0.00
2019-05-22T02:45:00.373Z,0.00
2019-05-22T02:46:00.573Z,0.00
2019-05-22T02:47:17.096Z,0.00
2019-05-22T02:48:00.092Z,0.00
2019-05-22T02:50:00.003Z,0.00
2019-05-22T02:50:59.994Z,0.00
2019-05-22T02:52:00.079Z,0.00
2019-05-22T02:53:00.251Z,0.00
2019-05-22T02:54:00.286Z,0.00
2019-05-22T02:55:00.019Z,0.00
2019-05-22T02:56:00.193Z,0.00
2019-05-22T02:56:59.872Z,0.00
2019-05-22T02:58:00.349Z,0.00
2019-05-22T02:59:00.085Z,0.00
2019-05-22T02:59:59.813Z,0.00
2019-05-22T03:01:00.097Z,0.00
2019-05-22T03:01:59.870Z,0.00
2019-05-22T03:02:59.814Z,0.00
2019-05-22T03:03:59.799Z,0.00
2019-05-22T03:04:59.815Z,0.00
2019-05-22T03:05:59.712Z,0.00
2019-05-22T03:06:59.681Z,0.00
2019-05-22T03:08:00.020Z,0.00
2019-05-22T03:08:59.681Z,0.00
2019-05-22T03:09:59.631Z,0.00
2019-05-22T03:10:59.807Z,0.00
2019-05-22T03:11:59.592Z,0.00
2019-05-22T03:13:00.065Z,0.00
2019-05-22T03:13:59.552Z,0.00
2019-05-22T03:14:59.812Z,0.00
2019-05-22T03:15:59.490Z,0.00
2019-05-22T03:16:59.777Z,0.00
2019-05-22T03:17:59.595Z,0.00
2019-05-22T03:20:00.066Z,0.00
2019-05-22T03:22:00.734Z,0.00
2019-05-22T03:22:59.623Z,0.00
2019-05-22T03:23:59.369Z,0.00
2019-05-22T03:24:59.318Z,0.00
2019-05-22T03:25:59.306Z,0.00
2019-05-22T03:26:59.278Z,0.00
2019-05-22T03:27:59.653Z,0.00
2019-05-22T03:28:59.450Z,0.00
2019-05-22T03:30:59.206Z,0.00
2019-05-22T03:31:59.181Z,0.00
2019-05-22T03:33:59.744Z,5.63
2019-05-22T03:35:00.067Z,5.63
2019-05-22T03:35:59.103Z,5.63
2019-05-22T03:36:59.083Z,5.63
2019-05-22T03:37:59.094Z,5.63
2019-05-22T03:38:59.049Z,5.63
2019-05-22T03:39:59.321Z,5.63
2019-05-22T03:40:59.356Z,5.63
2019-05-22T03:42:59.000Z,5.63
2019-05-22T03:43:58.951Z,5.63
2019-05-22T03:44:58.930Z,5.63
2019-05-22T03:45:59.210Z,5.63
2019-05-22T03:46:59.655Z,5.63
2019-05-22T03:47:59.081Z,5.63
2019-05-22T03:48:58.844Z,5.63
2019-05-22T03:49:58.825Z,5.63
2019-05-22T03:50:58.807Z,5.63
2019-05-22T03:51:58.798Z,11.25
2019-05-22T03:52:58.866Z,5.63
2019-05-22T03:53:58.757Z,11.25
2019-05-22T03:54:58.730Z,11.25
2019-05-22T03:55:58.712Z,11.25
2019-05-22T03:56:58.684Z,11.25
2019-05-22T03:57:58.970Z,11.25
2019-05-22T03:58:58.848Z,11.25
2019-05-22T03:59:58.667Z,11.25
2019-05-22T04:00:58.655Z,11.25
2019-05-22T04:01:58.733Z,11.25
2019-05-22T04:02:58.595Z,11.25
2019-05-22T04:03:58.851Z,11.25
2019-05-22T04:04:58.580Z,11.25
2019-05-22T04:05:58.548Z,11.25
2019-05-22T04:06:58.512Z,16.88
2019-05-22T04:07:58.740Z,16.88
2019-05-22T04:08:58.451Z,16.88
2019-05-22T04:10:59.059Z,16.88
2019-05-22T04:11:58.396Z,16.88
2019-05-22T04:12:58.431Z,16.88
2019-05-22T04:13:58.372Z,16.88
2019-05-22T04:14:58.345Z,22.50
2019-05-22T04:15:58.929Z,16.88
2019-05-22T04:16:58.850Z,16.88
2019-05-22T04:17:58.705Z,16.88
2019-05-22T04:19:59.395Z,22.50
2019-05-22T04:20:58.540Z,16.88
2019-05-22T04:21:58.266Z,22.50
2019-05-22T04:22:58.296Z,22.50
2019-05-22T04:23:58.178Z,22.50
2019-05-22T04:25:58.776Z,22.50
2019-05-22T04:26:58.360Z,28.13
2019-05-22T04:27:58.082Z,22.50
2019-05-22T04:28:58.077Z,28.13
2019-05-22T04:30:59.893Z,28.13
2019-05-22T04:31:58.438Z,28.13
2019-05-22T04:33:58.329Z,39.38
2019-05-22T04:34:58.203Z,39.38
2019-05-22T04:35:58.710Z,39.38
2019-05-22T04:36:57.962Z,33.75
2019-05-22T04:37:58.018Z,28.13
2019-05-22T04:38:58.415Z,28.13
2019-05-22T04:39:58.258Z,39.38
2019-05-22T04:40:57.992Z,33.75
2019-05-22T04:41:58.452Z,33.75
2019-05-22T04:42:57.818Z,33.75
2019-05-22T04:43:57.902Z,33.75
2019-05-22T04:44:57.889Z,45.00
2019-05-22T04:45:58.327Z,45.00
2019-05-22T04:46:57.955Z,45.00
2019-05-22T04:48:58.106Z,39.38
2019-05-22T04:50:07.280Z,39.38
2019-05-22T04:50:59.129Z,45.00
2019-05-22T04:51:57.864Z,39.38
2019-05-22T04:55:57.684Z,45.00
2019-05-22T04:56:57.648Z,45.00
2019-05-22T04:57:57.654Z,45.00
2019-05-22T04:58:57.853Z,45.00
2019-05-22T04:59:58.002Z,45.00
2019-05-22T05:00:58.010Z,50.63
2019-05-22T05:01:57.541Z,50.63
2019-05-22T05:02:57.558Z,45.00
2019-05-22T05:03:57.563Z,50.63
2019-05-22T05:04:57.833Z,50.63
2019-05-22T05:05:57.871Z,45.00
2019-05-22T05:06:57.390Z,50.63
2019-05-22T05:07:57.656Z,45.00
2019-05-22T05:08:57.359Z,45.00
2019-05-22T05:09:57.399Z,45.00
2019-05-22T05:10:57.242Z,50.63
2019-05-22T05:11:57.583Z,50.63
2019-05-22T05:13:57.191Z,50.63
2019-05-22T05:14:57.320Z,45.00
2019-05-22T05:15:57.368Z,56.25
2019-05-22T05:16:57.247Z,56.25
2019-05-22T05:17:57.419Z,61.88
2019-05-22T05:18:57.092Z,56.25
2019-05-22T05:19:57.098Z,61.88
2019-05-22T05:20:57.057Z,61.88
2019-05-22T05:21:57.295Z,56.25
2019-05-22T05:23:57.294Z,67.50
2019-05-22T05:24:57.049Z,50.63
2019-05-22T05:25:56.955Z,56.25
2019-05-22T05:26:56.945Z,50.63
2019-05-22T05:27:57.080Z,78.75
2019-05-22T05:28:56.893Z,61.88
2019-05-22T05:29:57.198Z,61.88
2019-05-22T05:30:56.878Z,61.88
2019-05-22T05:31:57.306Z,56.25
2019-05-22T05:33:57.060Z,56.25
2019-05-22T05:34:57.157Z,56.25
2019-05-22T05:35:56.795Z,61.88
2019-05-22T05:36:57.121Z,61.88
2019-05-22T05:37:56.728Z,61.88
2019-05-22T05:38:56.762Z,56.25
2019-05-22T05:39:56.768Z,61.88
2019-05-22T05:40:56.720Z,67.50
2019-05-22T05:41:56.698Z,67.50
2019-05-22T05:42:56.745Z,61.88
2019-05-22T05:43:57.382Z,67.50
2019-05-22T05:44:56.698Z,73.13
2019-05-22T05:45:56.823Z,67.50
2019-05-22T05:46:56.545Z,67.50
2019-05-22T05:47:56.605Z,67.50
2019-05-22T05:50:57.010Z,67.50
2019-05-22T05:51:56.603Z,73.13
2019-05-22T05:52:56.656Z,84.38
2019-05-22T05:53:56.447Z,84.38
2019-05-22T05:54:58.036Z,78.75
2019-05-22T05:55:56.552Z,73.13
2019-05-22T05:56:56.835Z,90.00
2019-05-22T05:57:57.067Z,101.25
2019-05-22T05:58:56.411Z,78.75
2019-05-22T05:59:56.463Z,73.13
2019-05-22T06:00:56.435Z,90.00
2019-05-22T06:01:56.331Z,95.63
2019-05-22T06:02:56.882Z,101.25
2019-05-22T06:03:56.546Z,84.38
2019-05-22T06:04:56.740Z,84.38
2019-05-22T06:05:56.582Z,90.00
2019-05-22T06:07:56.161Z,95.63
2019-05-22T06:08:56.269Z,84.38
2019-05-22T06:09:56.220Z,84.38
2019-05-22T06:11:57.608Z,90.00
2019-05-22T06:13:56.104Z,101.25
2019-05-22T06:14:56.077Z,112.50
2019-05-22T06:16:56.519Z,106.88
2019-05-22T06:17:56.089Z,101.25
2019-05-22T06:19:56.045Z,112.50
2019-05-22T06:21:55.970Z,106.88
2019-05-22T06:22:57.801Z,123.75
2019-05-22T06:23:56.864Z,118.13
2019-05-22T06:25:56.126Z,123.75
2019-05-22T06:27:55.837Z,118.13
2019-05-22T06:28:56.027Z,118.13
2019-05-22T06:29:55.781Z,118.13
2019-05-22T06:31:55.990Z,146.25
2019-05-22T06:32:55.692Z,118.13
2019-05-22T06:34:56.025Z,123.75
2019-05-22T06:35:55.629Z,118.13
2019-05-22T06:36:55.639Z,123.75
2019-05-22T06:37:56.201Z,135.00
2019-05-22T06:38:55.860Z,135.00
2019-05-22T06:39:55.614Z,129.38
2019-05-22T06:40:56.003Z,140.63
2019-05-22T06:41:55.502Z,123.75
2019-05-22T06:42:55.595Z,129.38
2019-05-22T06:43:55.751Z,118.13
2019-05-22T06:44:55.452Z,140.63
2019-05-22T06:45:55.482Z,129.38
2019-05-22T06:47:55.366Z,135.00
2019-05-22T06:49:55.715Z,146.25
2019-05-22T06:50:55.441Z,135.00
2019-05-22T06:51:55.605Z,163.13
2019-05-22T06:53:09.022Z,146.25
2019-05-22T06:53:55.253Z,157.50
2019-05-22T06:54:55.236Z,157.50
2019-05-22T06:56:55.883Z,146.25
2019-05-22T06:57:56.582Z,157.50
2019-05-22T06:58:55.741Z,168.75
2019-05-22T07:00:12.321Z,180.00
2019-05-22T07:00:55.516Z,196.88
2019-05-22T07:02:01.393Z,163.13
2019-05-22T07:02:55.982Z,168.75
2019-05-22T07:03:55.736Z,168.75
2019-05-22T07:04:56.217Z,163.13
2019-05-22T07:05:55.324Z,151.88
2019-05-22T07:07:55.008Z,180.00
2019-05-22T07:08:54.983Z,202.50
2019-05-22T07:09:55.700Z,180.00
2019-05-22T07:11:55.195Z,213.75
2019-05-22T07:12:54.936Z,168.75
2019-05-22T07:13:54.892Z,185.63
2019-05-22T07:14:54.865Z,151.88
2019-05-22T07:15:55.025Z,168.75
2019-05-22T07:16:55.141Z,163.13
2019-05-22T07:17:55.084Z,151.88
2019-05-22T07:18:54.826Z,140.63
2019-05-22T07:19:54.955Z,151.88
2019-05-22T07:20:55.050Z,151.88
2019-05-22T07:21:55.074Z,151.88
2019-05-22T07:22:54.868Z,151.88
2019-05-22T07:23:55.187Z,168.75
2019-05-22T07:24:54.676Z,168.75
2019-05-22T07:25:54.740Z,174.38
2019-05-22T07:26:54.625Z,151.88
2019-05-22T07:27:54.885Z,185.63
2019-05-22T07:28:54.605Z,157.50
2019-05-22T07:29:55.488Z,151.88
2019-05-22T07:30:55.573Z,151.88
2019-05-22T07:31:54.724Z,163.13
2019-05-22T07:32:54.881Z,140.63
2019-05-22T07:34:54.715Z,157.50
2019-05-22T07:36:09.247Z,163.13
2019-05-22T07:36:54.829Z,163.13
2019-05-22T07:37:54.753Z,168.75
2019-05-22T07:38:54.458Z,168.75
2019-05-22T07:39:54.591Z,157.50
2019-05-22T07:40:54.642Z,163.13
2019-05-22T07:41:54.781Z,185.63
2019-05-22T07:42:54.524Z,185.63
2019-05-22T07:43:54.326Z,168.75
2019-05-22T07:44:54.612Z,168.75
2019-05-22T07:48:59.326Z,146.25
2019-05-22T07:49:59.649Z,151.88
2019-05-22T07:52:59.663Z,168.75
2019-05-22T07:53:54.435Z,140.63
2019-05-22T07:54:54.187Z,157.50
2019-05-22T07:55:54.194Z,140.63
2019-05-22T07:56:54.132Z,151.88
2019-05-22T07:57:54.348Z,146.25
2019-05-22T07:58:54.023Z,196.88
2019-05-22T07:59:54.241Z,163.13
2019-05-22T08:00:54.023Z,146.25
2019-05-22T08:01:54.122Z,163.13
2019-05-22T08:02:54.033Z,163.13
2019-05-22T08:03:54.465Z,163.13
2019-05-22T08:04:53.967Z,140.63
2019-05-22T08:05:54.008Z,140.63
2019-05-22T08:06:53.897Z,129.38
2019-05-22T08:07:53.848Z,135.00
2019-05-22T08:08:53.891Z,140.63
2019-05-22T08:10:53.871Z,140.63
2019-05-22T08:11:53.901Z,163.13
2019-05-22T08:12:53.825Z,140.63
2019-05-22T08:13:53.900Z,157.50
2019-05-22T08:14:54.221Z,151.88
2019-05-22T08:15:54.249Z,151.88
2019-05-22T08:16:54.098Z,146.25
2019-05-22T08:17:54.099Z,151.88
2019-05-22T08:18:53.748Z,146.25
2019-05-22T08:19:53.641Z,157.50
2019-05-22T08:20:53.598Z,174.38
2019-05-22T08:22:06.197Z,157.50
2019-05-22T08:22:53.568Z,163.13
2019-05-22T08:23:53.901Z,157.50
2019-05-22T08:25:53.513Z,191.25
2019-05-22T08:26:55.040Z,174.38
2019-05-22T08:27:53.497Z,168.75
2019-05-22T08:28:53.881Z,191.25
2019-05-22T08:29:56.833Z,168.75
2019-05-22T08:30:53.498Z,168.75
2019-05-22T08:31:53.406Z,157.50
2019-05-22T08:32:53.392Z,163.13
2019-05-22T08:33:53.367Z,219.38
2019-05-22T08:34:53.495Z,275.63
2019-05-22T08:35:53.897Z,275.63
2019-05-22T08:36:53.726Z,298.13
2019-05-22T08:37:53.289Z,427.50
2019-05-22T08:39:53.311Z,225.00
2019-05-22T08:41:53.403Z,225.00
2019-05-22T08:42:53.496Z,236.25
2019-05-22T08:44:14.396Z,360.00
2019-05-22T08:44:53.167Z,320.63
2019-05-22T08:45:53.150Z,320.63
2019-05-22T08:46:53.121Z,258.75
2019-05-22T08:47:53.169Z,236.25
2019-05-22T08:49:53.510Z,270.00
2019-05-22T08:50:53.197Z,225.00
2019-05-22T08:51:53.121Z,225.00
2019-05-22T08:52:53.012Z,225.00
2019-05-22T08:53:53.182Z,236.25
2019-05-22T08:54:53.004Z,236.25
2019-05-22T08:55:53.056Z,236.25
2019-05-22T08:57:52.955Z,275.63
2019-05-22T08:58:52.930Z,258.75
2019-05-22T08:59:52.933Z,281.25
2019-05-22T09:00:53.073Z,331.88
2019-05-22T09:01:52.840Z,315.00
2019-05-22T09:02:53.008Z,320.63
2019-05-22T09:03:53.171Z,315.00
2019-05-22T09:04:52.850Z,298.13
2019-05-22T09:05:53.024Z,275.63
2019-05-22T09:07:52.989Z,270.00
2019-05-22T09:08:52.932Z,275.63
2019-05-22T09:09:52.850Z,275.63
2019-05-22T09:10:53.594Z,275.63
2019-05-22T09:11:53.293Z,270.00
2019-05-22T09:12:53.076Z,270.00
2019-05-22T09:13:52.790Z,258.75
2019-05-22T09:14:52.706Z,281.25
2019-05-22T09:15:52.574Z,331.88
2019-05-22T09:16:53.126Z,388.13
2019-05-22T09:18:52.642Z,331.88
2019-05-22T09:19:53.714Z,343.13
2019-05-22T09:20:53.922Z,303.75
2019-05-22T09:21:53.979Z,281.25
2019-05-22T09:22:54.086Z,286.88
2019-05-22T09:24:53.250Z,343.13
2019-05-22T09:25:52.711Z,365.63
2019-05-22T09:26:52.475Z,309.38
2019-05-22T09:27:52.376Z,264.38
2019-05-22T09:28:52.718Z,253.13
2019-05-22T09:29:52.684Z,258.75
2019-05-22T09:30:52.820Z,264.38
2019-05-22T09:31:52.399Z,286.88
2019-05-22T09:32:52.411Z,275.63
2019-05-22T09:34:52.585Z,230.63
2019-05-22T09:35:52.489Z,241.88
2019-05-22T09:38:52.926Z,219.38
2019-05-22T09:39:52.595Z,225.00
2019-05-22T09:40:52.542Z,241.88
2019-05-22T09:41:52.562Z,303.75
2019-05-22T09:42:52.286Z,337.50
2019-05-22T09:43:52.952Z,360.00
2019-05-22T09:45:52.116Z,523.13
2019-05-22T09:46:52.128Z,405.00
2019-05-22T09:47:52.764Z,275.63
2019-05-22T09:48:52.036Z,258.75
2019-05-22T09:49:52.017Z,281.25
2019-05-22T09:50:51.967Z,286.88
2019-05-22T09:51:51.939Z,303.75
2019-05-22T09:52:57.821Z,320.63
2019-05-22T09:53:53.313Z,315.00
2019-05-22T09:54:52.217Z,298.13
2019-05-22T09:55:52.023Z,264.38
2019-05-22T09:56:51.904Z,264.38
2019-05-22T09:57:51.859Z,275.63
2019-05-22T09:58:51.893Z,236.25
2019-05-22T09:59:51.859Z,247.50
2019-05-22T10:01:52.122Z,241.88
2019-05-22T10:02:51.797Z,236.25
2019-05-22T10:03:51.770Z,247.50
2019-05-22T10:05:52.054Z,270.00
2019-05-22T10:06:52.192Z,253.13
2019-05-22T10:08:00.398Z,253.13
2019-05-22T10:08:51.747Z,275.63
2019-05-22T10:09:51.625Z,303.75
2019-05-22T10:10:51.726Z,264.38
2019-05-22T10:12:51.926Z,258.75
2019-05-22T10:14:52.657Z,247.50
2019-05-22T10:15:51.683Z,253.13
2019-05-22T10:16:51.974Z,241.88
2019-05-22T10:17:51.583Z,236.25
2019-05-22T10:18:53.355Z,225.00
2019-05-22T10:19:51.455Z,241.88
2019-05-22T10:20:51.572Z,247.50
2019-05-22T10:21:51.976Z,241.88
2019-05-22T10:23:51.380Z,213.75
2019-05-22T10:24:52.081Z,213.75
2019-05-22T10:26:51.334Z,225.00
2019-05-22T10:27:51.413Z,264.38
2019-05-22T10:28:51.646Z,247.50
2019-05-22T10:29:51.277Z,219.38
2019-05-22T10:30:51.633Z,191.25
2019-05-22T10:31:51.525Z,191.25
2019-05-22T10:33:52.075Z,371.25
2019-05-22T10:35:51.531Z,309.38
2019-05-22T10:37:51.141Z,298.13
2019-05-22T10:38:51.116Z,286.88
2019-05-22T10:39:51.375Z,292.50
2019-05-22T10:40:51.061Z,315.00
2019-05-22T10:41:51.465Z,292.50
2019-05-22T10:43:51.733Z,337.50
2019-05-22T10:44:51.070Z,343.13
2019-05-22T10:46:51.227Z,371.25
2019-05-22T10:47:50.952Z,354.38
2019-05-22T10:49:51.261Z,376.88
2019-05-22T10:50:50.917Z,382.50
2019-05-22T10:51:50.888Z,421.88
2019-05-22T10:52:54.659Z,495.00
2019-05-22T10:53:50.910Z,523.13
2019-05-22T10:55:51.014Z,714.38
2019-05-22T10:56:50.796Z,714.38
2019-05-22T10:57:50.775Z,815.63
2019-05-22T10:58:50.766Z,798.75
2019-05-22T10:59:51.304Z,607.50
2019-05-22T11:00:51.709Z,601.88
2019-05-22T11:01:51.666Z,714.38
2019-05-22T11:02:50.725Z,804.38
2019-05-22T11:03:51.471Z,826.88
2019-05-22T11:04:50.932Z,770.63
2019-05-22T11:06:05.864Z,663.75
2019-05-22T11:06:50.945Z,630.00
2019-05-22T11:07:50.695Z,579.38
2019-05-22T11:08:50.608Z,455.63
2019-05-22T11:09:50.614Z,365.63
2019-05-22T11:10:50.552Z,416.25
2019-05-22T11:11:50.868Z,489.38
2019-05-22T11:14:00.879Z,562.50
2019-05-22T11:15:50.756Z,900.00
2019-05-22T11:16:50.453Z,933.75
2019-05-22T11:17:51.301Z,742.50
2019-05-22T11:18:50.952Z,725.63
2019-05-22T11:19:50.460Z,815.63
2019-05-22T11:20:50.484Z,832.50
2019-05-22T11:21:50.795Z,1085.63
2019-05-22T11:22:50.403Z,1175.63
2019-05-22T11:23:52.778Z,1642.50
2019-05-22T11:24:50.636Z,933.75
2019-05-22T11:25:50.445Z,793.13
2019-05-22T11:26:50.298Z,630.00
2019-05-22T11:28:50.407Z,579.38
2019-05-22T11:29:50.291Z,478.13
2019-05-22T11:30:50.225Z,483.75
2019-05-22T11:32:50.212Z,483.75
2019-05-22T11:33:50.192Z,483.75
2019-05-22T11:34:50.454Z,528.75
2019-05-22T11:35:50.150Z,545.63
2019-05-22T11:36:50.136Z,781.88
2019-05-22T11:37:50.227Z,838.13
2019-05-22T11:40:50.075Z,618.75
2019-05-22T11:41:50.073Z,680.63
2019-05-22T11:42:50.051Z,556.88
2019-05-22T11:43:50.099Z,652.50
2019-05-22T11:44:50.076Z,770.63
2019-05-22T11:45:50.364Z,826.88
2019-05-22T11:46:50.057Z,928.13
2019-05-22T11:47:50.046Z,911.25
2019-05-22T11:48:50.087Z,669.38
2019-05-22T11:49:50.066Z,641.25
2019-05-22T11:50:49.965Z,669.38
2019-05-22T11:51:50.017Z,630.00
2019-05-22T11:52:50.262Z,759.38
2019-05-22T11:53:49.917Z,1057.50
2019-05-22T11:54:49.875Z,675.00
2019-05-22T11:55:50.152Z,686.25
2019-05-22T12:02:49.757Z,298.13
2019-05-22T12:03:49.767Z,275.63
2019-05-22T12:04:49.726Z,270.00
2019-05-22T12:05:49.735Z,416.25
2019-05-22T12:06:53.690Z,601.88
2019-05-22T12:07:49.701Z,506.25
2019-05-22T12:08:49.681Z,528.75
2019-05-22T12:09:49.660Z,495.00
2019-05-22T12:10:50.104Z,495.00
2019-05-22T12:11:49.622Z,500.63
2019-05-22T12:12:49.806Z,517.50
2019-05-22T12:13:49.906Z,438.75
2019-05-22T12:14:49.597Z,455.63
2019-05-22T12:15:49.729Z,781.88
2019-05-22T12:17:49.537Z,736.88
2019-05-22T12:18:49.720Z,765.00
2019-05-22T12:19:49.746Z,826.88
2019-05-22T12:20:49.491Z,663.75
2019-05-22T12:21:50.760Z,534.38
2019-05-22T12:22:50.566Z,478.13
2019-05-22T12:23:50.420Z,596.25
2019-05-22T12:24:50.734Z,691.88
2019-05-22T12:25:51.108Z,871.88
2019-05-22T12:26:49.833Z,1035.00
2019-05-22T12:27:49.406Z,1029.38
2019-05-22T12:28:49.386Z,950.63
2019-05-22T12:29:49.496Z,1018.13
2019-05-22T12:30:50.712Z,1620.00
2019-05-22T12:31:49.622Z,1378.13
2019-05-22T12:32:49.392Z,995.63
2019-05-22T12:33:49.304Z,1029.38
2019-05-22T12:34:49.729Z,950.63
2019-05-22T12:35:49.318Z,787.50
2019-05-22T12:36:51.365Z,765.00
2019-05-22T12:37:49.554Z,590.63
2019-05-22T12:39:49.273Z,478.13
2019-05-22T12:40:49.226Z,410.63
2019-05-22T12:41:49.194Z,388.13
2019-05-22T12:43:49.549Z,326.25
2019-05-22T12:44:49.148Z,326.25
2019-05-22T12:45:49.166Z,326.25
2019-05-22T12:48:49.158Z,320.63
2019-05-22T12:49:49.441Z,360.00
2019-05-22T12:50:49.073Z,416.25
2019-05-22T12:51:49.145Z,455.63
2019-05-22T12:52:49.493Z,466.88
2019-05-22T12:53:49.079Z,585.00
2019-05-22T12:54:52.658Z,652.50
2019-05-22T12:55:49.185Z,641.25
2019-05-22T12:56:49.392Z,641.25
2019-05-22T12:58:49.023Z,450.00
2019-05-22T12:59:49.009Z,393.75
2019-05-22T13:00:48.961Z,371.25
2019-05-22T13:01:49.119Z,427.50
2019-05-22T13:02:48.899Z,590.63
2019-05-22T13:04:48.967Z,843.75
2019-05-22T13:05:48.868Z,663.75
2019-05-22T13:06:48.934Z,635.63
2019-05-22T13:07:48.959Z,556.88
2019-05-22T13:08:48.809Z,551.25
2019-05-22T13:09:48.829Z,433.13
2019-05-22T13:10:49.103Z,382.50
2019-05-22T13:12:48.772Z,326.25
2019-05-22T13:13:49.009Z,337.50
2019-05-22T13:14:48.761Z,326.25
2019-05-22T13:15:48.706Z,354.38
2019-05-22T13:16:49.351Z,444.38
2019-05-22T13:17:49.041Z,1147.50
2019-05-22T13:18:48.714Z,714.38
2019-05-22T13:19:49.274Z,697.50
2019-05-22T13:21:52.037Z,506.25
2019-05-22T13:22:48.599Z,500.63
2019-05-22T13:23:48.725Z,506.25
2019-05-22T13:24:49.032Z,489.38
2019-05-22T13:25:48.922Z,478.13
2019-05-22T13:26:48.606Z,517.50
2019-05-22T13:27:48.536Z,635.63
2019-05-22T13:28:48.605Z,669.38
2019-05-22T13:29:48.536Z,720.00
2019-05-22T13:30:48.729Z,753.75
2019-05-22T13:31:49.013Z,669.38
2019-05-22T13:32:48.580Z,534.38
2019-05-22T13:33:48.445Z,517.50
2019-05-22T13:34:48.522Z,551.25
2019-05-22T13:36:48.829Z,528.75
2019-05-22T13:37:48.504Z,511.88
2019-05-22T13:38:48.719Z,658.13
2019-05-22T13:40:48.496Z,540.00
2019-05-22T13:41:48.431Z,618.75
2019-05-22T13:43:48.715Z,596.25
2019-05-22T13:44:49.843Z,534.38
2019-05-22T13:45:48.623Z,534.38
2019-05-22T13:46:48.704Z,568.13
2019-05-22T13:47:48.284Z,607.50
2019-05-22T13:48:48.240Z,545.63
2019-05-22T13:49:48.526Z,523.13
2019-05-22T13:50:48.261Z,579.38
2019-05-22T13:51:48.501Z,562.50
2019-05-22T13:52:48.183Z,596.25
2019-05-22T13:53:48.156Z,590.63
2019-05-22T13:54:48.139Z,545.63
2019-05-22T13:55:48.345Z,562.50
2019-05-22T13:56:48.118Z,613.13
2019-05-22T13:57:48.491Z,635.63
2019-05-22T13:58:48.083Z,669.38
2019-05-22T13:59:48.270Z,742.50
2019-05-22T14:00:48.098Z,731.25
2019-05-22T14:01:48.249Z,1231.88
2019-05-22T14:02:48.028Z,793.13
2019-05-22T14:05:48.363Z,663.75
2019-05-22T14:06:47.987Z,579.38
2019-05-22T14:07:48.024Z,545.63
2019-05-22T14:08:48.078Z,556.88
2019-05-22T14:09:47.932Z,528.75
2019-05-22T14:10:49.876Z,540.00
2019-05-22T14:12:48.471Z,506.25
2019-05-22T14:13:48.084Z,540.00
2019-05-22T14:14:47.876Z,523.13
2019-05-22T14:15:55.800Z,461.25
2019-05-22T14:16:49.296Z,388.13
2019-05-22T14:17:48.586Z,455.63
2019-05-22T14:18:48.696Z,489.38
2019-05-22T14:19:47.856Z,500.63
2019-05-22T14:20:47.794Z,495.00
2019-05-22T14:21:51.374Z,450.00
2019-05-22T14:22:47.777Z,646.88
2019-05-22T14:23:47.752Z,506.25
2019-05-22T14:24:47.746Z,528.75
2019-05-22T14:25:48.529Z,585.00
2019-05-22T14:26:48.157Z,562.50
2019-05-22T14:27:47.731Z,506.25
2019-05-22T14:28:47.666Z,483.75
2019-05-22T14:29:47.844Z,472.50
2019-05-22T14:30:47.648Z,478.13
2019-05-22T14:31:47.879Z,506.25